Time;durP1;ratioP1;P1;durP2;ratioP2;P2;SDS_P1;SDS_P2;PMS_P1;PMS_P2;Temp;Humidity;BMP_temperature;BMP_pressure;BME280_temperature;BME280_humidity;BME280_pressure;Samples;Min_cycle;Max_cycle;Signal;HPM_P1;HPM_P2
2022/05/06 00:00:07;;;;;;;;;;;;;;;9.74;89.87;100935.91;5036714;28;19916;-76
2022/05/06 00:02:32;;;;;;;;;;;;;;;9.72;89.87;100949.28;5036710;28;19909;-76
2022/05/06 00:04:57;;;;;;;;;;;;;;;9.64;89.75;100950.34;5036656;28;19917;-76
2022/05/06 00:07:22;;;;;;;;;;;;;;;9.60;89.49;100942.38;5036292;28;19971;-76
2022/05/06 00:09:47;;;;;;;;;;;;;;;9.57;89.87;100949.53;5036335;28;19909;-75
2022/05/06 00:12:13;;;;;;;;;;;;;;;9.52;90.31;100952.28;5036187;28;19913;-76
2022/05/06 00:14:39;;;;;;;;;;;;;;;9.37;91.87;100948.94;5036244;28;20389;-76
2022/05/06 00:17:04;;;;;;;;;;;;;;;9.23;90.99;100946.44;5036081;28;19915;-76
2022/05/06 00:19:30;;;;;;;;;;;;;;;9.20;89.56;100949.16;5036065;28;20440;-76
2022/05/06 00:21:55;;;;;;;;;;;;;;;9.15;89.20;100953.66;5018602;28;20363;-76
2022/05/06 00:24:20;;;;;;;;;;;;;;;9.09;92.36;100951.97;5036304;28;20432;-76
2022/05/06 00:26:45;;;;;;;;;;;;;;;9.12;94.99;100951.91;5035960;28;19909;-76
2022/05/06 00:29:11;;;;;;;;;;;;;;;9.20;94.46;100953.63;5035960;28;19909;-76
2022/05/06 00:31:36;;;;;;;;;;;;;;;9.23;94.42;100957.09;5035907;28;19954;-75
2022/05/06 00:34:01;;;;;;;;;;;;;;;9.25;94.39;100949.97;5036239;28;20401;-77
2022/05/06 00:36:26;;;;;;;;;;;;;;;9.20;95.21;100954.47;5035771;28;19909;-76
2022/05/06 00:38:52;;;;;;;;;;;;;;;9.04;96.08;100952.03;5035799;28;19912;-77
2022/05/06 00:41:18;;;;;;;;;;;;;;;9.14;96.24;100954.56;5035734;28;19932;-77
2022/05/06 00:43:43;;;;;;;;;;;;;;;9.11;96.22;100951.94;5035598;28;20401;-76
2022/05/06 00:46:10;;;;;;;;;;;;;;;9.07;96.47;100948.44;5035571;28;20003;-76
2022/05/06 00:48:36;;;;;;;;;;;;;;;8.99;96.15;100953.00;5035877;28;19909;-76
2022/05/06 00:51:03;;;;;;;;;;;;;;;8.95;97.35;100952.16;5035750;28;19909;-76
2022/05/06 00:53:28;;;;;;;;;;;;;;;8.95;97.55;100946.81;5017736;28;19909;-76
2022/05/06 00:55:55;;;;;;;;;;;;;;;8.91;98.61;100955.75;5035673;28;19912;-75
2022/05/06 00:58:23;;;;;;;;;;;;;;;8.66;94.32;100950.72;5047458;22;19927;-78
2022/05/06 01:00:49;;;;;;;;;;;;;;;8.52;99.32;100954.38;5034507;28;19913;-77
2022/05/06 01:03:14;;;;;;;;;;;;;;;8.23;100.00;100958.22;5035140;28;19959;-78
2022/05/06 01:05:39;;;;;;;;;;;;;;;8.36;100.00;100958.97;5033861;28;19954;-78
2022/05/06 01:08:05;;;;;;;;;;;;;;;8.46;100.00;100954.44;5018298;28;19909;-77
2022/05/06 01:10:30;;;;;;;;;;;;;;;8.49;100.00;100957.97;5035371;28;20309;-78
2022/05/06 01:12:56;;;;;;;;;;;;;;;8.50;100.00;100964.16;5035060;28;19962;-77
2022/05/06 01:15:22;;;;;;;;;;;;;;;8.53;100.00;100961.44;5017616;28;19936;-77
2022/05/06 01:17:48;;;;;;;;;;;;;;;8.53;99.98;100961.44;5034743;28;20292;-77
2022/05/06 01:20:16;;;;;;;;;;;;;;;8.41;100.00;100961.59;5035371;28;20437;-77
2022/05/06 01:22:49;;;;;;;;;;;;;;;8.30;100.00;100961.72;5017131;28;19917;-77
2022/05/06 01:25:15;;;;;;;;;;;;;;;8.25;100.00;100961.72;5017217;28;19912;-78
2022/05/06 01:28:00;;;;;;;;;;;;;;;8.24;100.00;100954.66;5034600;28;19909;-77
2022/05/06 01:30:34;;;;;;;;;;;;;;;8.15;100.00;100964.50;5017041;28;19909;-78
2022/05/06 01:33:00;;;;;;;;;;;;;;;8.12;100.00;100967.16;5016926;28;19913;-77
2022/05/06 01:35:27;;;;;;;;;;;;;;;8.14;100.00;100959.19;5034601;28;19916;-77
2022/05/06 01:37:53;;;;;;;;;;;;;;;8.12;100.00;100960.97;5016861;28;19917;-78
2022/05/06 01:40:20;;;;;;;;;;;;;;;8.14;100.00;100969.84;5034625;28;19944;-77
2022/05/06 01:42:46;;;;;;;;;;;;;;;8.08;100.00;100968.09;5034548;28;19913;-78
2022/05/06 01:45:15;;;;;;;;;;;;;;;7.96;100.00;100961.13;5016815;28;20366;-77
2022/05/06 01:47:40;;;;;;;;;;;;;;;7.86;100.00;100959.44;5016677;28;20366;-77
2022/05/06 01:50:06;;;;;;;;;;;;;;;7.78;100.00;100967.47;5034370;28;19915;-77
2022/05/06 01:52:34;;;;;;;;;;;;;;;7.75;100.00;100962.16;5016829;28;19923;-77
2022/05/06 01:55:01;;;;;;;;;;;;;;;7.73;100.00;100967.47;5034363;28;19951;-78
2022/05/06 01:57:26;;;;;;;;;;;;;;;7.72;100.00;100965.72;5034382;28;19936;-77
2022/05/06 01:59:51;;;;;;;;;;;;;;;7.74;100.00;100969.25;5034703;28;20370;-77
2022/05/06 02:02:16;;;;;;;;;;;;;;;7.76;100.00;100964.78;5034283;28;20038;-77
2022/05/06 02:07:25;;;;;;;;;;;;;;;7.66;100.00;100968.41;5034535;28;20397;-78
2022/05/06 02:09:50;;;;;;;;;;;;;;;7.64;100.00;100964.88;5016763;28;19909;-78
2022/05/06 02:12:16;;;;;;;;;;;;;;;7.61;100.00;100973.75;5034137;28;19913;-78
2022/05/06 02:14:41;;;;;;;;;;;;;;;7.60;100.00;100964.03;5016431;28;19971;-78
2022/05/06 02:17:06;;;;;;;;;;;;;;;7.63;100.00;100963.13;5016515;28;19909;-78
2022/05/06 02:19:31;;;;;;;;;;;;;;;7.65;100.00;100964.91;5034300;28;19913;-77
2022/05/06 02:21:57;;;;;;;;;;;;;;;7.51;100.00;100964.09;5034640;28;19909;-77
2022/05/06 02:24:22;;;;;;;;;;;;;;;7.47;100.00;100963.25;5016740;28;19963;-77
2022/05/06 02:26:48;;;;;;;;;;;;;;;7.54;100.00;100956.97;5034212;28;20277;-78
2022/05/06 02:29:13;;;;;;;;;;;;;;;7.52;100.00;100964.09;5016611;28;19955;-78
2022/05/06 02:34:22;;;;;;;;;;;;;;;7.56;100.00;100962.28;5033852;28;20329;-77
2022/05/06 02:36:47;;;;;;;;;;;;;;;7.31;100.00;100962.44;5033825;28;19909;-78
2022/05/06 02:39:13;;;;;;;;;;;;;;;7.33;100.00;100963.31;5034279;28;19995;-78
2022/05/06 02:41:38;;;;;;;;;;;;;;;7.32;100.00;100957.09;5034028;28;20358;-78
2022/05/06 02:44:06;;;;;;;;;;;;;;;7.32;100.00;100964.22;5033923;28;19909;-77
2022/05/06 02:46:33;;;;;;;;;;;;;;;7.28;100.00;100963.34;5033738;28;19909;-78
2022/05/06 02:48:59;;;;;;;;;;;;;;;7.23;100.00;100960.72;5033829;28;19909;-78
2022/05/06 02:51:24;;;;;;;;;;;;;;;7.20;100.00;100965.13;5033962;28;19920;-78
2022/05/06 02:53:49;;;;;;;;;;;;;;;7.24;100.00;100965.09;5034051;28;20007;-78
2022/05/06 02:56:14;;;;;;;;;;;;;;;7.11;100.00;100958.97;5034314;28;19916;-78
2022/05/06 02:58:39;;;;;;;;;;;;;;;7.16;100.00;100958.97;5033746;28;20370;-78
2022/05/06 03:01:04;;;;;;;;;;;;;;;7.18;100.00;100954.53;5034593;28;19909;-78
2022/05/06 03:03:33;;;;;;;;;;;;;;;7.09;100.00;100955.44;5033806;28;20324;-78
2022/05/06 03:05:58;;;;;;;;;;;;;;;7.06;100.00;100957.25;5033998;28;19909;-78
2022/05/06 03:08:24;;;;;;;;;;;;;;;7.04;100.00;100949.28;5033898;28;19916;-77
2022/05/06 03:10:49;;;;;;;;;;;;;;;6.99;100.00;100951.97;5016661;28;19909;-78
2022/05/06 03:13:14;;;;;;;;;;;;;;;6.94;100.00;100953.75;5016101;28;20274;-78
2022/05/06 03:15:42;;;;;;;;;;;;;;;6.89;100.00;100958.19;5016442;28;19915;-77
2022/05/06 03:18:07;;;;;;;;;;;;;;;6.89;100.00;100955.53;5034969;28;19916;-78
2022/05/06 03:20:32;;;;;;;;;;;;;;;6.90;100.00;100946.69;5034904;28;19908;-78
2022/05/06 03:22:58;;;;;;;;;;;;;;;6.82;100.00;100950.28;5034784;28;19932;-78
2022/05/06 03:25:23;;;;;;;;;;;;;;;6.78;100.00;100945.84;5037005;28;19909;-78
2022/05/06 03:28:07;;;;;;;;;;;;;;;6.76;100.00;100944.97;5038736;28;20297;-78
2022/05/06 03:30:37;;;;;;;;;;;;;;;6.70;100.00;100945.00;5039087;28;19913;-78
2022/05/06 03:33:03;;;;;;;;;;;;;;;6.68;100.00;100946.75;5039211;28;19924;-78
2022/05/06 03:35:29;;;;;;;;;;;;;;;6.67;100.00;100939.69;5038780;28;19909;-78
2022/05/06 03:37:54;;;;;;;;;;;;;;;6.60;100.00;100944.13;5021127;28;19916;-78
2022/05/06 03:40:20;;;;;;;;;;;;;;;6.55;100.00;100944.16;5021307;28;19983;-78
2022/05/06 03:42:45;;;;;;;;;;;;;;;6.54;100.00;100952.13;5038192;28;19998;-78
2022/05/06 03:45:10;;;;;;;;;;;;;;;6.54;100.00;100950.34;5021378;28;19932;-77
2022/05/06 03:47:36;;;;;;;;;;;;;;;6.56;100.00;100943.28;5020968;28;19909;-77
2022/05/06 03:52:47;;;;;;;;;;;;;;;6.51;100.00;100953.00;5038834;28;20404;-78
2022/05/06 03:55:12;;;;;;;;;;;;;;;6.54;100.00;100952.13;5038283;28;19924;-78
2022/05/06 03:57:37;;;;;;;;;;;;;;;6.50;100.00;100956.53;5037701;28;19917;-78
2022/05/06 04:00:04;;;;;;;;;;;;;;;6.52;100.00;100956.56;5038030;28;19909;-78
2022/05/06 04:02:29;;;;;;;;;;;;;;;6.51;100.00;100955.66;5038530;28;19951;-78
2022/05/06 04:04:54;;;;;;;;;;;;;;;6.51;100.00;100955.66;5020257;28;19982;-77
2022/05/06 04:07:19;;;;;;;;;;;;;;;6.53;100.00;100964.50;5036347;28;19909;-77
2022/05/06 04:09:44;;;;;;;;;;;;;;;6.53;100.00;100960.94;5018415;28;19938;-76
2022/05/06 04:12:10;;;;;;;;;;;;;;;6.47;100.00;100965.38;5036180;28;19909;-78
2022/05/06 04:14:35;;;;;;;;;;;;;;;6.48;100.00;100966.28;5036099;28;19909;-77
2022/05/06 04:17:02;;;;;;;;;;;;;;;6.41;100.00;100961.88;5035990;28;19909;-77
2022/05/06 04:19:28;;;;;;;;;;;;;;;6.41;100.00;100964.53;5036360;28;19958;-77
2022/05/06 04:24:37;;;;;;;;;;;;;;;6.48;100.00;100967.16;5036180;28;19951;-77
2022/05/06 04:27:03;;;;;;;;;;;;;;;6.46;100.00;100962.75;5035748;28;19966;-77
2022/05/06 04:29:28;;;;;;;;;;;;;;;6.37;100.00;100971.59;5036077;28;19913;-77
2022/05/06 04:31:53;;;;;;;;;;;;;;;6.36;100.00;100965.44;5035769;28;19931;-77
2022/05/06 04:34:18;;;;;;;;;;;;;;;6.43;100.00;100968.06;5035816;28;19952;-77
2022/05/06 04:36:44;;;;;;;;;;;;;;;6.44;100.00;100980.44;5035552;28;19909;-77
2022/05/06 04:39:09;;;;;;;;;;;;;;;6.41;100.00;100976.03;5035971;28;19909;-77
2022/05/06 04:41:34;;;;;;;;;;;;;;;6.41;100.00;100981.34;5035728;28;20304;-77
2022/05/06 04:43:59;;;;;;;;;;;;;;;6.41;100.00;100976.03;5036494;28;20362;-79
2022/05/06 04:46:24;;;;;;;;;;;;;;;6.44;100.00;100985.75;5036305;28;19932;-77
2022/05/06 04:48:49;;;;;;;;;;;;;;;6.46;100.00;100992.81;5036473;28;19916;-77
2022/05/06 04:51:15;;;;;;;;;;;;;;;6.47;100.00;100986.63;5019177;28;19940;-78
2022/05/06 04:53:40;;;;;;;;;;;;;;;6.50;100.00;100991.03;5035800;28;20328;-77
2022/05/06 04:56:05;;;;;;;;;;;;;;;6.51;100.00;100992.81;5035219;28;19909;-76
2022/05/06 04:58:30;;;;;;;;;;;;;;;6.51;100.00;100995.47;5035044;28;19920;-78
2022/05/06 05:00:55;;;;;;;;;;;;;;;6.51;100.00;100992.81;5035353;28;19916;-76
2022/05/06 05:03:21;;;;;;;;;;;;;;;6.55;100.00;100999.88;5017472;28;19913;-77
2022/05/06 05:05:48;;;;;;;;;;;;;;;6.58;100.00;100993.66;5035273;28;20332;-77
2022/05/06 05:08:13;;;;;;;;;;;;;;;6.63;100.00;101001.63;5035152;28;19919;-78
2022/05/06 05:10:38;;;;;;;;;;;;;;;6.66;100.00;101004.28;5017443;28;19909;-77
2022/05/06 05:13:03;;;;;;;;;;;;;;;6.72;100.00;101006.03;5017199;28;19909;-77
2022/05/06 05:15:29;;;;;;;;;;;;;;;6.77;100.00;101001.59;5017344;28;19913;-77
2022/05/06 05:17:54;;;;;;;;;;;;;;;6.86;100.00;101003.31;5034808;28;19909;-79
2022/05/06 05:20:19;;;;;;;;;;;;;;;6.94;100.00;100996.22;5034879;28;19917;-77
2022/05/06 05:22:44;;;;;;;;;;;;;;;7.03;100.00;100995.31;5036894;28;20397;-78
2022/05/06 05:25:10;;;;;;;;;;;;;;;7.11;100.00;101003.28;5020000;28;20289;-78
2022/05/06 05:27:39;;;;;;;;;;;;;;;7.19;100.00;101006.75;5019530;28;19909;-78
2022/05/06 05:30:06;;;;;;;;;;;;;;;7.24;100.00;101004.97;5037046;28;19912;-78
2022/05/06 05:32:32;;;;;;;;;;;;;;;7.32;100.00;101001.41;5037418;28;19955;-78
2022/05/06 05:34:57;;;;;;;;;;;;;;;7.38;100.00;101007.56;5038236;28;19909;-78
2022/05/06 05:37:22;;;;;;;;;;;;;;;7.42;100.00;101008.41;5037410;28;19978;-78
2022/05/06 05:39:48;;;;;;;;;;;;;;;7.46;100.00;101007.53;5038015;28;19909;-78
2022/05/06 05:42:18;;;;;;;;;;;;;;;7.52;100.00;101011.03;5036877;28;19913;-78
2022/05/06 05:50:12;;;;;;;;;;;;;;;7.77;100.00;101016.19;5034918;28;19954;-78
2022/05/06 05:52:37;;;;;;;;;;;;;;;7.85;100.00;101019.69;5034558;28;20386;-77
2022/05/06 05:55:03;;;;;;;;;;;;;;;7.92;100.00;101016.09;5016466;28;20285;-77
2022/05/06 05:57:28;;;;;;;;;;;;;;;8.03;100.00;101015.13;5034329;28;19920;-78
2022/05/06 05:59:53;;;;;;;;;;;;;;;8.13;100.00;101015.94;5034364;28;20014;-77
2022/05/06 06:02:19;;;;;;;;;;;;;;;8.21;100.00;101014.09;5016322;28;19913;-77
2022/05/06 06:04:45;;;;;;;;;;;;;;;8.32;100.00;101022.00;5016232;28;20400;-77
2022/05/06 06:07:10;;;;;;;;;;;;;;;8.38;100.00;101015.72;5033966;28;19938;-77
2022/05/06 06:09:35;;;;;;;;;;;;;;;8.44;100.00;101017.44;5016348;28;19916;-77
2022/05/06 06:12:00;;;;;;;;;;;;;;;8.51;100.00;101019.16;5034295;28;19909;-77
2022/05/06 06:14:26;;;;;;;;;;;;;;;8.57;100.00;101020.88;5033938;28;19932;-77
2022/05/06 06:16:51;;;;;;;;;;;;;;;8.67;100.00;101016.38;5034006;28;19909;-77
2022/05/06 06:19:16;;;;;;;;;;;;;;;8.76;100.00;101015.41;5034160;28;19940;-77
2022/05/06 06:21:42;;;;;;;;;;;;;;;8.83;100.00;101023.31;5033801;28;19956;-77
2022/05/06 06:24:07;;;;;;;;;;;;;;;8.94;100.00;101028.50;5016115;28;20001;-77
2022/05/06 06:26:33;;;;;;;;;;;;;;;9.03;100.00;101024.84;5034067;28;20361;-77
2022/05/06 06:28:58;;;;;;;;;;;;;;;9.16;100.00;101024.72;5016310;28;20345;-77
2022/05/06 06:31:23;;;;;;;;;;;;;;;9.20;100.00;101026.44;5033771;28;20425;-77
2022/05/06 06:33:49;;;;;;;;;;;;;;;9.31;100.00;101023.63;5033703;28;19916;-77
2022/05/06 06:36:14;;;;;;;;;;;;;;;9.41;100.00;101024.38;5033550;28;19916;-76
2022/05/06 06:38:39;;;;;;;;;;;;;;;9.52;100.00;101021.59;5033556;28;19909;-77
2022/05/06 06:41:04;;;;;;;;;;;;;;;9.62;100.00;101030.34;5015866;28;19909;-77
2022/05/06 06:43:30;;;;;;;;;;;;;;;9.71;100.00;101027.56;5033583;28;19916;-77
2022/05/06 06:45:56;;;;;;;;;;;;;;;9.83;100.00;101034.47;5033481;28;20344;-78
2022/05/06 06:48:22;;;;;;;;;;;;;;;9.90;100.00;101026.38;5033769;28;19916;-77
2022/05/06 06:50:48;;;;;;;;;;;;;;;9.98;100.00;101028.91;5015834;28;20003;-77
2022/05/06 06:53:13;;;;;;;;;;;;;;;10.07;100.00;101036.81;5015668;28;19913;-77
2022/05/06 06:55:38;;;;;;;;;;;;;;;10.21;100.00;101035.66;5033401;28;19978;-77
2022/05/06 06:58:06;;;;;;;;;;;;;;;10.29;100.00;101033.75;5055212;22;19921;-88
2022/05/06 07:00:31;;;;;;;;;;;;;;;10.43;100.00;101035.31;5018630;28;19913;-87
2022/05/06 07:02:57;;;;;;;;;;;;;;;10.54;100.00;101036.03;5021330;28;19935;-88
2022/05/06 07:05:22;;;;;;;;;;;;;;;10.66;100.00;101037.63;5020092;28;19908;-88
2022/05/06 07:11:52;;;;;;;;;;;;;;;10.85;100.00;101037.25;5038454;28;19915;-88
2022/05/06 07:13:23;;;;;;;;;;;;;;;11.01;100.00;101044.97;5037018;28;19909;-88
2022/05/06 07:15:48;;;;;;;;;;;;;;;11.15;100.00;101039.38;5020047;28;19916;-88
2022/05/06 07:18:13;;;;;;;;;;;;;;;11.31;100.00;101039.06;5019683;28;20282;-88
2022/05/06 07:20:38;;;;;;;;;;;;;;;11.49;100.00;101045.81;5019673;28;19959;-89
2022/05/06 07:23:06;;;;;;;;;;;;;;;11.68;100.00;101043.59;5019420;28;19913;-88
2022/05/06 07:25:31;;;;;;;;;;;;;;;11.75;99.39;101043.47;5019549;28;19913;-88
2022/05/06 07:27:57;;;;;;;;;;;;;;;11.81;100.00;101043.31;5019426;28;19959;-87
2022/05/06 07:30:22;;;;;;;;;;;;;;;11.93;98.06;101051.03;5019504;28;19909;-88
2022/05/06 07:32:47;;;;;;;;;;;;;;;12.10;99.22;101047.09;5037191;28;20051;-88
2022/05/06 07:35:12;;;;;;;;;;;;;;;12.23;98.25;101041.47;5019567;28;19947;-88
2022/05/06 07:37:38;;;;;;;;;;;;;;;12.34;99.43;101047.44;5019574;28;19909;-87
2022/05/06 07:40:03;;;;;;;;;;;;;;;12.38;100.00;101042.88;5037860;28;19909;-88
2022/05/06 07:42:30;;;;;;;;;;;;;;;12.48;100.00;101038.16;5019209;28;19913;-88
2022/05/06 07:44:56;;;;;;;;;;;;;;;12.61;100.00;101044.06;5019016;28;19913;-87
2022/05/06 07:47:21;;;;;;;;;;;;;;;12.83;99.53;101044.38;5019118;28;19909;-87
2022/05/06 07:49:46;;;;;;;;;;;;;;;13.05;96.95;101042.91;5019459;28;19975;-87
2022/05/06 07:52:11;;;;;;;;;;;;;;;13.27;91.32;101048.50;5019004;28;19909;-88
2022/05/06 07:54:36;;;;;;;;;;;;;;;13.58;84.02;101051.25;5019134;28;19960;-88
2022/05/06 07:57:02;;;;;;;;;;;;;;;13.67;91.22;101042.91;5037047;28;19959;-88
2022/05/06 07:59:27;;;;;;;;;;;;;;;13.67;84.72;101044.72;5018913;28;19912;-89
2022/05/06 08:04:37;;;;;;;;;;;;;;;13.89;84.29;101044.91;5037145;28;19916;-89
2022/05/06 08:07:05;;;;;;;;;;;;;;;13.91;81.28;101045.75;5036565;28;19908;-89
2022/05/06 08:09:31;;;;;;;;;;;;;;;14.02;78.87;101049.91;5036760;28;19916;-88
2022/05/06 08:11:56;;;;;;;;;;;;;;;14.14;78.18;101044.13;5036113;28;19909;-89
2022/05/06 08:14:21;;;;;;;;;;;;;;;14.29;81.94;101048.13;5018890;28;19931;-88
2022/05/06 08:16:47;;;;;;;;;;;;;;;14.39;78.97;101047.78;5019207;28;20126;-88
2022/05/06 08:19:13;;;;;;;;;;;;;;;14.47;75.03;101037.66;5018498;28;19909;-89
2022/05/06 08:21:38;;;;;;;;;;;;;;;14.57;72.20;101040.91;5018454;28;19935;-89
2022/05/06 08:24:03;;;;;;;;;;;;;;;14.70;73.49;101048.53;5036124;28;19916;-89
2022/05/06 08:26:29;;;;;;;;;;;;;;;15.08;69.56;101049.00;5036370;28;19909;-88
2022/05/06 08:28:54;;;;;;;;;;;;;;;15.12;72.54;101040.81;5018335;28;19915;-88
2022/05/06 08:31:20;;;;;;;;;;;;;;;15.32;69.95;101048.13;5018302;28;20278;-87
2022/05/06 08:33:45;;;;;;;;;;;;;;;15.28;66.93;101050.06;5019015;28;19978;-89
2022/05/06 08:36:10;;;;;;;;;;;;;;;15.29;66.97;101048.25;5018276;28;19909;-89
2022/05/06 08:38:35;;;;;;;;;;;;;;;15.42;67.31;101043.28;5018176;28;19917;-89
2022/05/06 08:41:00;;;;;;;;;;;;;;;15.38;67.29;101052.41;5018347;28;20362;-89
2022/05/06 08:43:26;;;;;;;;;;;;;;;15.53;65.40;101053.63;5018006;28;19917;-88
2022/05/06 08:51:21;;;;;;;;;;;;;;;15.80;60.96;101055.28;5036423;28;19922;-88
2022/05/06 08:53:46;;;;;;;;;;;;;;;15.84;62.33;101060.50;5018563;28;19913;-88
2022/05/06 08:56:11;;;;;;;;;;;;;;;15.74;61.72;101057.31;5017830;28;20001;-89
2022/05/06 08:58:37;;;;;;;;;;;;;;;15.84;66.24;101055.13;5035360;28;20016;-88
2022/05/06 09:01:06;;;;;;;;;;;;;;;16.07;69.44;101045.25;5035558;28;20292;-89
2022/05/06 09:03:32;;;;;;;;;;;;;;;16.30;59.27;101051.50;5018037;28;19920;-89
2022/05/06 09:06:01;;;;;;;;;;;;;;;16.23;60.20;101049.13;5017849;28;19909;-88
2022/05/06 09:08:37;;;;;;;;;;;;;;;16.26;57.68;101054.41;5017905;28;19920;-88
2022/05/06 09:11:09;;;;;;;;;;;;;;;16.50;58.07;101051.59;5017598;28;19948;-89
2022/05/06 09:13:38;;;;;;;;;;;;;;;16.67;58.39;101056.25;5035065;28;20412;-88
2022/05/06 09:19:12;;;;;;;;;;;;;;;16.77;56.87;101051.34;5035595;28;20293;-88
2022/05/06 09:21:58;;;;;;;;;;;;;;;17.09;60.78;101056.22;5016990;28;20361;-88
2022/05/06 09:24:25;;;;;;;;;;;;;;;17.03;54.63;101065.50;5017107;28;20424;-89
2022/05/06 09:27:02;;;;;;;;;;;;;;;17.24;54.51;101065.47;5017291;28;19908;-89
2022/05/06 09:29:27;;;;;;;;;;;;;;;17.00;55.01;101059.34;5017468;28;20388;-89
2022/05/06 09:31:54;;;;;;;;;;;;;;;17.32;55.94;101054.31;5017525;28;19945;-89
2022/05/06 09:34:25;;;;;;;;;;;;;;;17.59;56.20;101051.28;5017186;28;19909;-89
2022/05/06 09:36:51;;;;;;;;;;;;;;;17.45;52.84;101053.72;5017248;28;19917;-88
2022/05/06 09:39:16;;;;;;;;;;;;;;;17.82;55.24;101046.59;5017096;28;19913;-89
2022/05/06 09:41:41;;;;;;;;;;;;;;;18.05;56.02;101049.09;5017162;28;19913;-89
2022/05/06 09:44:08;;;;;;;;;;;;;;;18.20;52.85;101056.47;5017056;28;19916;-89
2022/05/06 09:46:33;;;;;;;;;;;;;;;18.17;52.37;101051.19;5016872;28;20317;-89
2022/05/06 09:48:59;;;;;;;;;;;;;;;18.19;52.45;101046.56;5035204;28;19916;-87
2022/05/06 09:51:29;;;;;;;;;;;;;;;18.59;56.50;101050.06;5034785;28;19917;-88
2022/05/06 09:53:57;;;;;;;;;;;;;;;18.88;54.78;101039.53;5016769;28;20370;-89
2022/05/06 09:56:22;;;;;;;;;;;;;;;18.70;51.44;101042.28;5016775;28;19909;-88
2022/05/06 09:58:52;;;;;;;;;;;;;;;18.95;53.60;101045.50;5016493;28;19924;-89
2022/05/06 10:01:23;;;;;;;;;;;;;;;18.96;50.30;101052.66;5016564;28;19909;-89
2022/05/06 10:03:51;;;;;;;;;;;;;;;19.38;48.94;101034.19;5016604;28;19909;-88
2022/05/06 10:06:25;;;;;;;;;;;;;;;19.42;49.47;101037.59;5016733;28;19917;-88
2022/05/06 10:08:53;;;;;;;;;;;;;;;19.09;50.31;101034.81;5019898;28;20294;-88
2022/05/06 10:11:21;;;;;;;;;;;;;;;18.79;51.03;101040.91;5034501;28;19909;-89
2022/05/06 10:13:47;;;;;;;;;;;;;;;18.72;52.27;101034.06;5034437;28;20366;-89
2022/05/06 10:16:12;;;;;;;;;;;;;;;18.24;50.24;101037.41;5016415;28;20359;-89
2022/05/06 10:18:38;;;;;;;;;;;;;;;18.55;50.16;101038.53;5016361;28;19915;-88
2022/05/06 10:21:04;;;;;;;;;;;;;;;18.32;51.18;101032.50;5016187;28;19909;-89
2022/05/06 10:23:42;;;;;;;;;;;;;;;18.20;50.08;101032.16;5016223;28;20001;-89
2022/05/06 10:26:08;;;;;;;;;;;;;;;18.59;51.66;101018.50;5034678;28;19909;-89
2022/05/06 10:34:11;;;;;;;;;;;;;;;18.33;51.35;101023.41;5034060;28;19925;-89
2022/05/06 10:36:43;;;;;;;;;;;;;;;18.24;52.79;101018.50;5034166;28;19913;-90
2022/05/06 10:39:22;;;;;;;;;;;;;;;18.62;50.83;101018.34;5016469;28;19915;-88
2022/05/06 10:42:05;;;;;;;;;;;;;;;18.57;51.27;101020.41;5034363;28;19928;-89
2022/05/06 10:44:36;;;;;;;;;;;;;;;18.60;50.41;101019.38;5016773;28;20324;-89
2022/05/06 10:47:03;;;;;;;;;;;;;;;19.35;50.99;101009.13;5016162;28;19913;-88
2022/05/06 10:49:34;;;;;;;;;;;;;;;19.59;49.88;101011.38;5016052;28;19917;-88
2022/05/06 10:52:12;;;;;;;;;;;;;;;19.84;50.36;101004.56;5015960;28;20456;-89
2022/05/06 10:54:37;;;;;;;;;;;;;;;19.73;47.54;101008.78;5016026;28;19916;-89
2022/05/06 10:57:06;;;;;;;;;;;;;;;19.71;47.27;101013.41;5016743;28;19909;-89
2022/05/06 10:59:50;;;;;;;;;;;;;;;20.01;47.96;101017.13;5033956;28;19913;-89
2022/05/06 11:02:16;;;;;;;;;;;;;;;19.71;48.81;101007.13;5033758;28;19913;-89
2022/05/06 11:04:41;;;;;;;;;;;;;;;19.14;49.16;101006.63;5015734;28;19916;-89
2022/05/06 11:07:11;;;;;;;;;;;;;;;19.80;49.45;101001.16;5033918;28;19916;-88
2022/05/06 11:09:36;;;;;;;;;;;;;;;19.60;47.72;101005.03;5016022;28;19913;-89
2022/05/06 11:12:01;;;;;;;;;;;;;;;19.31;49.29;101000.28;5015773;28;19966;-89
2022/05/06 11:14:26;;;;;;;;;;;;;;;18.90;51.07;101001.56;5015598;28;19951;-88
2022/05/06 11:16:51;;;;;;;;;;;;;;;19.39;50.88;101003.44;5017129;28;20011;-89
2022/05/06 11:19:32;;;;;;;;;;;;;;;19.56;50.29;100992.63;5033557;28;19916;-89
2022/05/06 11:22:07;;;;;;;;;;;;;;;19.66;48.36;100991.13;5016465;28;20342;-89
2022/05/06 11:24:33;;;;;;;;;;;;;;;20.26;48.20;100998.56;5015849;28;19956;-90
2022/05/06 11:27:14;;;;;;;;;;;;;;;20.58;48.86;100993.03;5015732;28;19952;-89
2022/05/06 11:30:05;;;;;;;;;;;;;;;19.76;48.59;100991.47;5015972;28;20421;-90
2022/05/06 11:32:31;;;;;;;;;;;;;;;19.67;49.06;100986.56;5030219;28;19913;-89
2022/05/06 11:35:02;;;;;;;;;;;;;;;20.24;46.78;100989.66;5015621;28;19919;-88
2022/05/06 11:37:29;;;;;;;;;;;;;;;21.12;48.02;100987.06;5015675;28;20305;-89
2022/05/06 11:42:39;;;;;;;;;;;;;;;21.41;43.57;100989.75;5033894;28;20354;-89
2022/05/06 11:47:51;;;;;;;;;;;;;;;21.54;45.51;100990.66;5037486;28;20281;-90
2022/05/06 11:50:17;;;;;;;;;;;;;;;21.19;46.20;100985.69;5019060;28;19913;-89
2022/05/06 11:52:43;;;;;;;;;;;;;;;21.01;44.96;100977.75;5019268;28;19917;-89
2022/05/06 11:55:09;;;;;;;;;;;;;;;21.15;45.08;100971.47;5036920;28;19909;-89
2022/05/06 11:57:36;;;;;;;;;;;;;;;21.41;48.57;100984.31;5019611;28;19913;-90
2022/05/06 12:00:06;;;;;;;;;;;;;;;20.80;43.97;100979.94;5022368;28;19920;-92
2022/05/06 12:02:31;;;;;;;;;;;;;;;20.64;43.50;100981.78;5019211;28;19996;-89
2022/05/06 12:04:56;;;;;;;;;;;;;;;20.24;45.82;100978.81;5019075;28;20393;-89
2022/05/06 12:07:39;;;;;;;;;;;;;;;20.12;46.58;100970.47;5019898;28;19909;-87
2022/05/06 12:10:04;;;;;;;;;;;;;;;19.92;46.51;100963.47;5018896;28;19909;-89
2022/05/06 12:12:29;;;;;;;;;;;;;;;19.63;47.21;100964.22;5018627;28;19913;-90
2022/05/06 12:15:08;;;;;;;;;;;;;;;19.44;46.16;100962.56;5018689;28;19909;-90
2022/05/06 12:17:36;;;;;;;;;;;;;;;18.93;46.73;100960.81;5036558;28;19909;-87
2022/05/06 12:20:01;;;;;;;;;;;;;;;19.19;45.22;100961.25;5019003;28;19909;-88
2022/05/06 12:22:26;;;;;;;;;;;;;;;19.47;45.86;100959.69;5018571;28;19917;-88
2022/05/06 12:24:55;;;;;;;;;;;;;;;19.47;46.13;100956.09;5036449;28;20354;-88
2022/05/06 12:27:27;;;;;;;;;;;;;;;19.51;47.07;100958.53;5018383;28;19915;-88
2022/05/06 12:29:53;;;;;;;;;;;;;;;19.77;43.58;100961.56;5018444;28;20288;-90
2022/05/06 12:32:18;;;;;;;;;;;;;;;20.08;42.20;100950.75;5035935;28;20373;-88
2022/05/06 12:34:43;;;;;;;;;;;;;;;19.86;42.34;100964.72;5018341;28;19915;-89
2022/05/06 12:37:15;;;;;;;;;;;;;;;20.05;43.41;100953.63;5037056;28;19909;-88
2022/05/06 12:39:44;;;;;;;;;;;;;;;19.62;43.78;100951.63;5018426;28;19909;-88
2022/05/06 12:42:17;;;;;;;;;;;;;;;19.70;46.16;100938.50;5018119;28;20003;-87
2022/05/06 12:44:43;;;;;;;;;;;;;;;19.58;47.32;100944.66;5018226;28;19909;-86
2022/05/06 12:50:00;;;;;;;;;;;;;;;19.44;47.29;100946.31;5036016;28;19955;-87
2022/05/06 12:52:25;;;;;;;;;;;;;;;19.73;46.49;100949.19;5017838;28;19917;-87
2022/05/06 12:54:50;;;;;;;;;;;;;;;20.00;45.66;100947.63;5017857;28;19909;-89
2022/05/06 12:57:15;;;;;;;;;;;;;;;20.35;45.94;100937.47;5016894;28;20369;-91
2022/05/06 12:59:41;;;;;;;;;;;;;;;20.47;42.92;100946.69;5040946;22;19921;-79
2022/05/06 13:02:07;;;;;;;;;;;;;;;20.61;42.01;100940.44;5019800;28;19979;-78
2022/05/06 13:04:33;;;;;;;;;;;;;;;21.34;44.85;100936.81;5036883;28;19908;-76
2022/05/06 13:06:58;;;;;;;;;;;;;;;21.59;43.26;100946.03;5035286;28;19909;-77
2022/05/06 13:09:23;;;;;;;;;;;;;;;21.44;42.28;100940.66;5019306;28;19920;-77
2022/05/06 13:11:48;;;;;;;;;;;;;;;21.10;42.96;100943.75;5036738;28;19919;-78
2022/05/06 13:14:14;;;;;;;;;;;;;;;20.97;43.09;100939.06;5037339;28;19915;-77
2022/05/06 13:16:39;;;;;;;;;;;;;;;21.13;44.04;100943.50;5037210;28;20358;-78
2022/05/06 13:19:05;;;;;;;;;;;;;;;21.55;43.44;100931.78;5036713;28;20293;-77